This is the latest recevied weather packets stored in our database for station/object JE9BHE-13. If no packets are shown the sender has not sent any weather packets the latest 10 day(s).
| Time | Temp. | Humidity | Pressure | Rain* | Wind** | Luminosity | Snow |
|---|---|---|---|---|---|---|---|
| 1777890606 | 11.11° C | 92% | 1016.1 hPa | 0.25 mm | - | - | - |
| 1777890246 | 11.67° C | 91% | 1015.9 hPa | 0 mm | - | - | - |
| 1777889166 | 11.67° C | 91% | 1015.5 hPa | 0.25 mm | - | - | - |
| 1777888985 | 11.67° C | 92% | 1015.4 hPa | 0.25 mm | - | - | - |
| 1777888086 | 11.67° C | 92% | 1015.1 hPa | 1.78 mm | - | - | - |
| 1777887907 | 11.67° C | 92% | 1015.1 hPa | 1.78 mm | - | - | - |
| 1777886286 | 11.67° C | 94% | 1014.1 hPa | 1.78 mm | - | - | - |
| 1777883946 | 12.22° C | 90% | 1013.1 hPa | 1.27 mm | - | - | - |
| 1777883587 | 12.78° C | 90% | 1012.8 hPa | 1.27 mm | - | - | - |
| 1777883046 | 12.78° C | 90% | 1012.8 hPa | 1.27 mm | - | - | - |
| 1777882866 | 12.78° C | 91% | 1012.5 hPa | 1.27 mm | - | - | - |
| 1777881606 | 12.22° C | 90% | 1012.3 hPa | 1.52 mm | - | - | - |
| 1777880346 | 12.78° C | 86% | 1011.9 hPa | 0.25 mm | - | - | - |
| 1777879446 | 12.78° C | 86% | 1011.6 hPa | 1.02 mm | - | - | - |
| 1777879086 | 12.78° C | 86% | 1011.5 hPa | 1.27 mm | - | - | - |
| 1777878546 | 13.33° C | 88% | 1011.5 hPa | 1.78 mm | - | - | - |
| 1777878366 | 13.33° C | 88% | 1011.4 hPa | 1.78 mm | - | - | - |
| 1777876926 | 13.33° C | 88% | 1010.1 hPa | 1.78 mm | - | - | - |
| 1777876566 | 13.33° C | 89% | 1010.1 hPa | 1.78 mm | - | - | - |
| 1777876026 | 13.33° C | 88% | 1010.1 hPa | 1.52 mm | - | - | - |
| 1777875846 | 13.33° C | 89% | 1010.1 hPa | 1.27 mm | - | - | - |
| 1777875486 | 13.89° C | 87% | 1010.3 hPa | 1.02 mm | - | - | - |
| 1777870265 | 16.67° C | 70% | 1008.1 hPa | 0 mm | - | - | - |
| 1777868826 | 17.78° C | 66% | 1007.3 hPa | 0 mm | - | - | - |
| 1777866486 | 17.22° C | 70% | 1006.9 hPa | 0 mm | - | - | - |
* Rain latest hour (hover to see other rain measurements)
** Current wind speed in m/s (hover to see current wind gust speed)